THY189 LTFM-EDDF
Flight info
| Callsign | THY189 |
|---|---|
| Flight time | N/A |
| Altitude | 40000 |
| Route | LTFM/35L N0492F400 VADE4D VADEN N618 BAKLO DCT XANEX DCT UTEKA DCT BABIT DCT GOTAR DCT ABRUK DCT SIMBA DCT AKINI T161 DEBHI DEBH1D EDDF/07R |
| Aircraft | A359/H-SDE2E3GHIJ3J4J5LM1ORWXY/LB1D1 |
Departure
| Time | 2026-05-01 09:26 |
|---|---|
| Airport | İstanbul Airport (LTFM) |
Arrival
| Time | N/A |
|---|---|
| Airport | Frankfurt Main Airport (EDDF) |
| Time | Latitude | Longitude | Altitude | Speed | Heading |
|---|---|---|---|---|---|
| 2026-05-01 08:47 | 41.26607 | 28.74134 | 340 ft | 0 kts | 85° |
| 2026-05-01 09:10 | 41.26606 | 28.74129 | 340 ft | 2 kts | 85° |
| 2026-05-01 09:11 | 41.26604 | 28.74107 | 335 ft | 2 kts | 81° |
| 2026-05-01 09:11 | 41.26601 | 28.74086 | 337 ft | 2 kts | 76° |
| 2026-05-01 09:11 | 41.26596 | 28.74065 | 335 ft | 2 kts | 68° |
| 2026-05-01 09:11 | 41.26588 | 28.74045 | 335 ft | 2 kts | 51° |
| 2026-05-01 09:12 | 41.26576 | 28.74031 | 335 ft | 2 kts | 24° |
| 2026-05-01 09:12 | 41.26560 | 28.74025 | 335 ft | 2 kts | 5° |
| 2026-05-01 09:12 | 41.26549 | 28.74024 | 335 ft | 1 kts | 1° |
| 2026-05-01 09:12 | 41.26548 | 28.74024 | 335 ft | 0 kts | 0° |
| 2026-05-01 09:14 | 41.26549 | 28.74024 | 335 ft | 1 kts | 0° |
| 2026-05-01 09:14 | 41.26574 | 28.74024 | 335 ft | 6 kts | 0° |
| 2026-05-01 09:14 | 41.26619 | 28.74023 | 337 ft | 8 kts | 358° |
| 2026-05-01 09:15 | 41.26677 | 28.74021 | 338 ft | 9 kts | 358° |
| 2026-05-01 09:15 | 41.26749 | 28.74018 | 338 ft | 11 kts | 358° |
| 2026-05-01 09:15 | 41.26822 | 28.74016 | 337 ft | 8 kts | 358° |
| 2026-05-01 09:15 | 41.26880 | 28.74013 | 335 ft | 9 kts | 356° |
| 2026-05-01 09:16 | 41.26949 | 28.74010 | 338 ft | 11 kts | 359° |
| 2026-05-01 09:16 | 41.27019 | 28.74011 | 337 ft | 1 kts | 0° |
| 2026-05-01 09:16 | 41.27027 | 28.74011 | 338 ft | 3 kts | 0° |
| 2026-05-01 09:17 | 41.27052 | 28.73945 | 338 ft | 9 kts | 272° |
| 2026-05-01 09:17 | 41.27050 | 28.73843 | 340 ft | 13 kts | 269° |
| 2026-05-01 09:17 | 41.27047 | 28.73524 | 336 ft | 21 kts | 269° |
| 2026-05-01 09:18 | 41.27044 | 28.73313 | 340 ft | 24 kts | 269° |
| 2026-05-01 09:18 | 41.27040 | 28.73027 | 340 ft | 1 kts | 270° |
| 2026-05-01 09:19 | 41.27015 | 28.72993 | 339 ft | 6 kts | 194° |
| 2026-05-01 09:19 | 41.26949 | 28.72989 | 337 ft | 13 kts | 179° |
| 2026-05-01 09:19 | 41.26856 | 28.72991 | 335 ft | 9 kts | 179° |
| 2026-05-01 09:20 | 41.26739 | 28.72991 | 338 ft | 0 kts | 186° |
| 2026-05-01 09:20 | 41.26723 | 28.72966 | 335 ft | 2 kts | 253° |
| 2026-05-01 09:21 | 41.26724 | 28.72964 | 335 ft | 0 kts | 262° |
| 2026-05-01 09:21 | 41.26723 | 28.72959 | 335 ft | 2 kts | 261° |
| 2026-05-01 09:21 | 41.26722 | 28.72955 | 335 ft | 0 kts | 253° |
| 2026-05-01 09:24 | 41.26718 | 28.72927 | 340 ft | 7 kts | 261° |
| 2026-05-01 09:24 | 41.26713 | 28.72729 | 336 ft | 15 kts | 269° |
| 2026-05-01 09:25 | 41.26724 | 28.72527 | 335 ft | 4 kts | 328° |
| 2026-05-01 09:25 | 41.27332 | 28.72500 | 337 ft | 104 kts | 358° |
| 2026-05-01 09:26 | 41.28234 | 28.72484 | 557 ft | 137 kts | 5° |
| 2026-05-01 09:26 | 41.30168 | 28.72247 | 1769 ft | 166 kts | 359° |
| 2026-05-01 09:26 | 41.31432 | 28.72248 | 2147 ft | 194 kts | 6° |
| 2026-05-01 09:27 | 41.34384 | 28.72441 | 3530 ft | 224 kts | 5° |
| 2026-05-01 09:27 | 41.35971 | 28.72485 | 4296 ft | 231 kts | 4° |
| 2026-05-01 09:27 | 41.37588 | 28.72230 | 5077 ft | 243 kts | 346° |
| 2026-05-01 09:28 | 41.39008 | 28.70913 | 5902 ft | 258 kts | 313° |
| 2026-05-01 09:28 | 41.39998 | 28.68898 | 6818 ft | 264 kts | 305° |
| 2026-05-01 09:28 | 41.40923 | 28.66755 | 7683 ft | 268 kts | 304° |
| 2026-05-01 09:28 | 41.41866 | 28.64602 | 8601 ft | 272 kts | 303° |
| 2026-05-01 09:29 | 41.43829 | 28.60193 | 10405 ft | 283 kts | 301° |
| 2026-05-01 09:29 | 41.44510 | 28.58670 | 10687 ft | 296 kts | 301° |
| 2026-05-01 09:30 | 41.48503 | 28.49773 | 12987 ft | 335 kts | 300° |
| 2026-05-01 09:30 | 41.53328 | 28.39019 | 16277 ft | 344 kts | 299° |
| 2026-05-01 09:30 | 41.57596 | 28.30831 | 18546 ft | 359 kts | 313° |
| 2026-05-01 09:31 | 41.59176 | 28.28319 | 19128 ft | 362 kts | 298° |
| 2026-05-01 09:31 | 41.60114 | 28.25152 | 19800 ft | 363 kts | 284° |
| 2026-05-01 09:31 | 41.66844 | 28.05113 | 24124 ft | 387 kts | 293° |
| 2026-05-01 09:32 | 41.72621 | 27.92684 | 26125 ft | 403 kts | 299° |
| 2026-05-01 09:32 | 41.77464 | 27.77954 | 28071 ft | 422 kts | 308° |
| 2026-05-01 09:32 | 41.81628 | 27.72313 | 29060 ft | 429 kts | 307° |
| 2026-05-01 09:33 | 41.85206 | 27.66000 | 30073 ft | 433 kts | 302° |
| 2026-05-01 09:33 | 41.88607 | 27.59252 | 30910 ft | 439 kts | 300° |
| 2026-05-01 09:33 | 41.95367 | 27.45227 | 32342 ft | 452 kts | 300° |
| 2026-05-01 09:34 | 41.98729 | 27.38161 | 33001 ft | 458 kts | 300° |
| 2026-05-01 09:34 | 42.02154 | 27.30939 | 33665 ft | 463 kts | 300° |
| 2026-05-01 09:34 | 42.09728 | 27.16721 | 35039 ft | 469 kts | 309° |
| 2026-05-01 09:35 | 42.14113 | 27.10209 | 35676 ft | 470 kts | 309° |
| 2026-05-01 09:35 | 42.22872 | 26.97089 | 36917 ft | 470 kts | 309° |
| 2026-05-01 09:35 | 42.27255 | 26.90457 | 37521 ft | 469 kts | 309° |
| 2026-05-01 09:36 | 42.31565 | 26.83920 | 38071 ft | 470 kts | 309° |
| 2026-05-01 09:36 | 42.35937 | 26.77276 | 38600 ft | 470 kts | 309° |
| 2026-05-01 09:36 | 42.40266 | 26.70685 | 39098 ft | 469 kts | 309° |
| 2026-05-01 09:36 | 42.44549 | 26.64148 | 39482 ft | 470 kts | 309° |
| 2026-05-01 09:37 | 42.48867 | 26.57544 | 39840 ft | 470 kts | 309° |
| 2026-05-01 09:37 | 42.56651 | 26.43300 | 40257 ft | 469 kts | 297° |
| 2026-05-01 09:37 | 42.58715 | 26.38148 | 40265 ft | 468 kts | 296° |
| 2026-05-01 09:38 | 42.68813 | 26.12384 | 40284 ft | 469 kts | 296° |
| 2026-05-01 09:39 | 42.76980 | 25.91469 | 40299 ft | 469 kts | 296° |
| 2026-05-01 09:39 | 42.83091 | 25.75714 | 40316 ft | 469 kts | 296° |
| 2026-05-01 09:40 | 42.92179 | 25.52122 | 40326 ft | 470 kts | 296° |
| 2026-05-01 09:41 | 42.98260 | 25.36224 | 40338 ft | 470 kts | 296° |
| 2026-05-01 09:41 | 43.07297 | 25.12436 | 40346 ft | 471 kts | 296° |
| 2026-05-01 09:42 | 43.13258 | 24.96633 | 40350 ft | 471 kts | 296° |
| 2026-05-01 09:43 | 43.23638 | 24.63555 | 40355 ft | 472 kts | 293° |
| 2026-05-01 09:43 | 43.28834 | 24.47011 | 40355 ft | 473 kts | 292° |
| 2026-05-01 09:44 | 43.36591 | 24.22073 | 40353 ft | 474 kts | 292° |
| 2026-05-01 09:45 | 43.41771 | 24.05286 | 40357 ft | 474 kts | 292° |
| 2026-05-01 09:45 | 43.49416 | 23.80313 | 40356 ft | 475 kts | 292° |
| 2026-05-01 09:46 | 43.54508 | 23.63542 | 40354 ft | 475 kts | 292° |
| 2026-05-01 09:46 | 43.59598 | 23.46667 | 40352 ft | 476 kts | 292° |
| 2026-05-01 09:47 | 43.64672 | 23.29739 | 40354 ft | 476 kts | 292° |
| 2026-05-01 09:47 | 43.69718 | 23.12788 | 40347 ft | 477 kts | 292° |
| 2026-05-01 09:48 | 43.74701 | 22.95939 | 40350 ft | 477 kts | 292° |
| 2026-05-01 09:48 | 43.79737 | 22.78798 | 40341 ft | 477 kts | 292° |
| 2026-05-01 09:49 | 43.84703 | 22.61779 | 40340 ft | 478 kts | 292° |
| 2026-05-01 09:49 | 43.89669 | 22.44646 | 40340 ft | 478 kts | 292° |
| 2026-05-01 09:50 | 43.92840 | 22.36697 | 40341 ft | 477 kts | 309° |
| 2026-05-01 09:50 | 43.97118 | 22.29657 | 40340 ft | 477 kts | 311° |
| 2026-05-01 09:50 | 44.05788 | 22.15630 | 40338 ft | 478 kts | 311° |
| 2026-05-01 09:51 | 44.14397 | 22.01579 | 40332 ft | 478 kts | 311° |
| 2026-05-01 09:51 | 44.23045 | 21.87394 | 40325 ft | 478 kts | 311° |
| 2026-05-01 09:52 | 44.31645 | 21.73219 | 40322 ft | 478 kts | 311° |
| 2026-05-01 09:52 | 44.40210 | 21.59031 | 40320 ft | 478 kts | 311° |
| 2026-05-01 09:53 | 44.48735 | 21.44838 | 40326 ft | 479 kts | 311° |
| 2026-05-01 09:53 | 44.57295 | 21.30516 | 40326 ft | 479 kts | 311° |
| 2026-05-01 09:54 | 44.65863 | 21.16109 | 40328 ft | 479 kts | 311° |
| 2026-05-01 09:54 | 44.74358 | 21.01751 | 40332 ft | 480 kts | 311° |
| 2026-05-01 09:55 | 44.82874 | 20.87284 | 40336 ft | 480 kts | 311° |
| 2026-05-01 09:55 | 44.91390 | 20.72744 | 40341 ft | 481 kts | 311° |
| 2026-05-01 09:56 | 44.99927 | 20.58092 | 40349 ft | 481 kts | 311° |
| 2026-05-01 09:56 | 45.08415 | 20.43448 | 40347 ft | 482 kts | 311° |
| 2026-05-01 09:57 | 45.16890 | 20.28751 | 40346 ft | 482 kts | 311° |
| 2026-05-01 09:57 | 45.25359 | 20.13989 | 40349 ft | 482 kts | 311° |
| 2026-05-01 09:58 | 45.33822 | 19.99159 | 40360 ft | 483 kts | 311° |
| 2026-05-01 09:58 | 45.42186 | 19.84424 | 40361 ft | 483 kts | 311° |
| 2026-05-01 09:59 | 45.50680 | 19.69383 | 40363 ft | 484 kts | 311° |
| 2026-05-01 09:59 | 45.59105 | 19.54384 | 40362 ft | 484 kts | 311° |
| 2026-05-01 10:00 | 45.67438 | 19.39470 | 40369 ft | 483 kts | 311° |
| 2026-05-01 10:00 | 45.75785 | 19.24449 | 40366 ft | 483 kts | 311° |
| 2026-05-01 10:01 | 45.84226 | 19.09178 | 40365 ft | 483 kts | 311° |
| 2026-05-01 10:01 | 45.92536 | 18.94024 | 40368 ft | 484 kts | 310° |
| 2026-05-01 10:02 | 45.99505 | 18.77605 | 40370 ft | 487 kts | 304° |
| 2026-05-01 10:02 | 46.06404 | 18.60755 | 40372 ft | 487 kts | 304° |
| 2026-05-01 10:03 | 46.13301 | 18.43854 | 40373 ft | 487 kts | 304° |
| 2026-05-01 10:03 | 46.20143 | 18.26980 | 40369 ft | 488 kts | 304° |
| 2026-05-01 10:04 | 46.26993 | 18.09985 | 40372 ft | 488 kts | 304° |
| 2026-05-01 10:04 | 46.33811 | 17.92960 | 40371 ft | 488 kts | 303° |
| 2026-05-01 10:05 | 46.40584 | 17.75948 | 40367 ft | 489 kts | 303° |
| 2026-05-01 10:05 | 46.47383 | 17.58761 | 40379 ft | 489 kts | 303° |
| 2026-05-01 10:06 | 46.54083 | 17.41718 | 40389 ft | 489 kts | 303° |
| 2026-05-01 10:06 | 46.60810 | 17.24496 | 40397 ft | 489 kts | 303° |
| 2026-05-01 10:07 | 46.67489 | 17.07288 | 40400 ft | 489 kts | 303° |
| 2026-05-01 10:07 | 46.74171 | 16.89966 | 40394 ft | 488 kts | 303° |
| 2026-05-01 10:08 | 46.84081 | 16.64068 | 40386 ft | 487 kts | 303° |
| 2026-05-01 10:09 | 46.90666 | 16.46720 | 40385 ft | 486 kts | 303° |
| 2026-05-01 10:09 | 46.97195 | 16.29411 | 40384 ft | 485 kts | 303° |
| 2026-05-01 10:10 | 47.03412 | 16.12338 | 40361 ft | 484 kts | 300° |
| 2026-05-01 10:10 | 47.04928 | 16.05510 | 40194 ft | 501 kts | 278° |
| 2026-05-01 10:10 | 47.03224 | 15.95557 | 39931 ft | 521 kts | 239° |
| 2026-05-01 10:11 | 47.00886 | 15.91490 | 39883 ft | 524 kts | 222° |
| 2026-05-01 10:11 | 46.97838 | 15.88447 | 39874 ft | 525 kts | 206° |
| 2026-05-01 10:11 | 46.94394 | 15.86637 | 39903 ft | 524 kts | 191° |
| 2026-05-01 10:11 | 46.88801 | 15.85178 | 40170 ft | 523 kts | 195° |
| 2026-05-01 10:12 | 46.82493 | 15.79946 | 40392 ft | 524 kts | 226° |
| 2026-05-01 10:12 | 46.79607 | 15.74326 | 40389 ft | 517 kts | 246° |
| 2026-05-01 10:12 | 46.81333 | 15.52515 | 40394 ft | 471 kts | 318° |
| 2026-05-01 10:13 | 46.86694 | 15.47444 | 40396 ft | 457 kts | 341° |
| 2026-05-01 10:13 | 46.98569 | 15.40921 | 40402 ft | 458 kts | 343° |
| 2026-05-01 10:14 | 47.10396 | 15.33801 | 40400 ft | 463 kts | 331° |
| 2026-05-01 10:14 | 47.15289 | 15.27524 | 40394 ft | 473 kts | 314° |
| 2026-05-01 10:14 | 47.23129 | 15.11906 | 40385 ft | 477 kts | 310° |
| 2026-05-01 10:15 | 47.30855 | 14.96027 | 40393 ft | 477 kts | 310° |
| 2026-05-01 10:15 | 47.38388 | 14.80650 | 40391 ft | 477 kts | 310° |
| 2026-05-01 10:16 | 47.46170 | 14.64672 | 40392 ft | 477 kts | 310° |
| 2026-05-01 10:17 | 47.57733 | 14.40747 | 40392 ft | 478 kts | 310° |
| 2026-05-01 10:17 | 47.67985 | 14.19355 | 40389 ft | 478 kts | 309° |
| 2026-05-01 10:18 | 47.79486 | 13.95169 | 40383 ft | 477 kts | 309° |
| 2026-05-01 10:19 | 47.87129 | 13.78972 | 40395 ft | 477 kts | 309° |
| 2026-05-01 10:19 | 47.94722 | 13.62784 | 40394 ft | 478 kts | 309° |
| 2026-05-01 10:20 | 48.06120 | 13.38304 | 40397 ft | 478 kts | 309° |
| 2026-05-01 10:20 | 48.13703 | 13.21899 | 40398 ft | 478 kts | 308° |
| 2026-05-01 10:21 | 48.25221 | 12.97738 | 40392 ft | 474 kts | 315° |
| 2026-05-01 10:22 | 48.38401 | 12.75518 | 40411 ft | 474 kts | 315° |
| 2026-05-01 10:23 | 48.51428 | 12.53218 | 40410 ft | 474 kts | 315° |
| 2026-05-01 10:23 | 48.64336 | 12.30942 | 40408 ft | 474 kts | 315° |
| 2026-05-01 10:24 | 48.76746 | 11.96460 | 40405 ft | 491 kts | 282° |
| 2026-05-01 10:25 | 48.81073 | 11.55462 | 40399 ft | 490 kts | 282° |
| 2026-05-01 10:26 | 48.83154 | 11.35003 | 40307 ft | 491 kts | 282° |
| 2026-05-01 10:26 | 48.87149 | 11.19100 | 38484 ft | 466 kts | 318° |
| 2026-05-01 10:27 | 48.91862 | 11.12397 | 37187 ft | 464 kts | 320° |
| 2026-05-01 10:27 | 48.96402 | 11.05612 | 35907 ft | 465 kts | 320° |
| 2026-05-01 10:28 | 48.98760 | 11.02135 | 35174 ft | 467 kts | 321° |
| 2026-05-01 10:28 | 49.03511 | 10.95333 | 33494 ft | 473 kts | 322° |
| 2026-05-01 10:28 | 49.05952 | 10.91900 | 32620 ft | 476 kts | 322° |
| 2026-05-01 10:29 | 49.10829 | 10.85068 | 30998 ft | 479 kts | 321° |
| 2026-05-01 10:29 | 49.13305 | 10.81578 | 30567 ft | 478 kts | 321° |
| 2026-05-01 10:30 | 49.18154 | 10.74696 | 30422 ft | 479 kts | 321° |
| 2026-05-01 10:30 | 49.22932 | 10.67642 | 30424 ft | 480 kts | 317° |
| 2026-05-01 10:31 | 49.32180 | 10.52833 | 30416 ft | 481 kts | 318° |
| 2026-05-01 10:32 | 49.36553 | 10.45621 | 28862 ft | 448 kts | 311° |
| 2026-05-01 10:32 | 49.38367 | 10.41756 | 27214 ft | 448 kts | 308° |
| 2026-05-01 10:32 | 49.41964 | 10.33797 | 23604 ft | 454 kts | 308° |
| 2026-05-01 10:33 | 49.45468 | 10.26062 | 21908 ft | 431 kts | 308° |
| 2026-05-01 10:33 | 49.48966 | 10.18366 | 21392 ft | 436 kts | 308° |
| 2026-05-01 10:34 | 49.50698 | 10.14541 | 21161 ft | 431 kts | 308° |
| 2026-05-01 10:34 | 49.52376 | 10.10830 | 20921 ft | 430 kts | 308° |
| 2026-05-01 10:34 | 49.54103 | 10.07008 | 20593 ft | 429 kts | 308° |
| 2026-05-01 10:35 | 49.57492 | 9.99493 | 19886 ft | 426 kts | 308° |
| 2026-05-01 10:35 | 49.59174 | 9.95761 | 19543 ft | 424 kts | 308° |
| 2026-05-01 10:35 | 49.60853 | 9.92027 | 19197 ft | 423 kts | 307° |
| 2026-05-01 10:35 | 49.62526 | 9.88287 | 18847 ft | 422 kts | 307° |
| 2026-05-01 10:36 | 49.65842 | 9.80869 | 18120 ft | 418 kts | 307° |
| 2026-05-01 10:36 | 49.67492 | 9.77170 | 17771 ft | 417 kts | 307° |
| 2026-05-01 10:36 | 49.69106 | 9.73551 | 17424 ft | 415 kts | 307° |
| 2026-05-01 10:37 | 49.70770 | 9.69816 | 17072 ft | 412 kts | 307° |
| 2026-05-01 10:37 | 49.73997 | 9.62557 | 16373 ft | 409 kts | 307° |
| 2026-05-01 10:37 | 49.75599 | 9.58954 | 15658 ft | 410 kts | 307° |
| 2026-05-01 10:38 | 49.77185 | 9.55365 | 15067 ft | 392 kts | 307° |
| 2026-05-01 10:38 | 49.78678 | 9.51972 | 14500 ft | 368 kts | 307° |
| 2026-05-01 10:38 | 49.80085 | 9.48775 | 13935 ft | 348 kts | 307° |
| 2026-05-01 10:38 | 49.81402 | 9.45786 | 13332 ft | 333 kts | 307° |
| 2026-05-01 10:39 | 49.82711 | 9.42817 | 12742 ft | 332 kts | 307° |
| 2026-05-01 10:39 | 49.84000 | 9.39894 | 12192 ft | 321 kts | 307° |
| 2026-05-01 10:39 | 49.85222 | 9.37112 | 11672 ft | 314 kts | 307° |
| 2026-05-01 10:39 | 49.86325 | 9.34120 | 11160 ft | 319 kts | 295° |
| 2026-05-01 10:40 | 49.87041 | 9.30886 | 10662 ft | 320 kts | 287° |
| 2026-05-01 10:40 | 49.87646 | 9.27605 | 10135 ft | 310 kts | 287° |
| 2026-05-01 10:40 | 49.88239 | 9.24405 | 9589 ft | 313 kts | 287° |
| 2026-05-01 10:40 | 49.88851 | 9.21173 | 9054 ft | 316 kts | 287° |
| 2026-05-01 10:41 | 49.89470 | 9.17923 | 8573 ft | 316 kts | 287° |
| 2026-05-01 10:41 | 49.90089 | 9.14655 | 8382 ft | 308 kts | 287° |
| 2026-05-01 10:41 | 49.91282 | 9.08378 | 8360 ft | 301 kts | 287° |
| 2026-05-01 10:42 | 49.91867 | 9.05312 | 8362 ft | 302 kts | 287° |
| 2026-05-01 10:42 | 49.92462 | 9.02187 | 8362 ft | 302 kts | 287° |
| 2026-05-01 10:42 | 49.93059 | 8.99046 | 8367 ft | 302 kts | 287° |
| 2026-05-01 10:42 | 49.93653 | 8.95909 | 8367 ft | 302 kts | 287° |
| 2026-05-01 10:43 | 49.94250 | 8.92770 | 8370 ft | 302 kts | 287° |
| 2026-05-01 10:43 | 49.94848 | 8.89628 | 8366 ft | 302 kts | 287° |
| 2026-05-01 10:43 | 49.95445 | 8.86505 | 8367 ft | 302 kts | 287° |
| 2026-05-01 10:43 | 49.96038 | 8.83390 | 8369 ft | 302 kts | 287° |
| 2026-05-01 10:44 | 49.96634 | 8.80253 | 8371 ft | 302 kts | 287° |
| 2026-05-01 10:44 | 49.97226 | 8.77121 | 8375 ft | 302 kts | 287° |
| 2026-05-01 10:44 | 49.97799 | 8.73981 | 8369 ft | 302 kts | 284° |
| 2026-05-01 10:44 | 49.97952 | 8.70784 | 8366 ft | 301 kts | 260° |
| 2026-05-01 10:45 | 49.97351 | 8.67683 | 8375 ft | 298 kts | 246° |
| 2026-05-01 10:45 | 49.96590 | 8.64687 | 8373 ft | 298 kts | 246° |
| 2026-05-01 10:45 | 49.95849 | 8.61670 | 8379 ft | 299 kts | 247° |
| 2026-05-01 10:45 | 49.95125 | 8.58683 | 8370 ft | 299 kts | 247° |
| 2026-05-01 10:46 | 49.94389 | 8.55638 | 8374 ft | 299 kts | 247° |
| 2026-05-01 10:46 | 49.93657 | 8.52610 | 8374 ft | 300 kts | 247° |
| 2026-05-01 10:46 | 49.92924 | 8.49582 | 8377 ft | 300 kts | 247° |
| 2026-05-01 10:46 | 49.92193 | 8.46537 | 8370 ft | 299 kts | 248° |
| 2026-05-01 10:47 | 49.91469 | 8.43518 | 8371 ft | 299 kts | 247° |
| 2026-05-01 10:47 | 49.90739 | 8.40503 | 8109 ft | 300 kts | 247° |
| 2026-05-01 10:47 | 49.90007 | 8.37496 | 7936 ft | 292 kts | 247° |
| 2026-05-01 10:47 | 49.89311 | 8.34608 | 7788 ft | 282 kts | 247° |
| 2026-05-01 10:48 | 49.88645 | 8.31853 | 7442 ft | 269 kts | 247° |
| 2026-05-01 10:48 | 49.87985 | 8.29138 | 6916 ft | 266 kts | 247° |
| 2026-05-01 10:48 | 49.87343 | 8.26483 | 6583 ft | 266 kts | 246° |
| 2026-05-01 10:48 | 49.86690 | 8.23807 | 6401 ft | 263 kts | 246° |
| 2026-05-01 10:49 | 49.86043 | 8.21149 | 6186 ft | 261 kts | 246° |
| 2026-05-01 10:49 | 49.85662 | 8.18421 | 5901 ft | 264 kts | 269° |
| 2026-05-01 10:49 | 49.86072 | 8.15664 | 5676 ft | 264 kts | 298° |
| 2026-05-01 10:49 | 49.87229 | 8.13523 | 5381 ft | 257 kts | 328° |
| 2026-05-01 10:50 | 49.88775 | 8.12292 | 5311 ft | 245 kts | 342° |
| 2026-05-01 10:50 | 49.90344 | 8.11322 | 5188 ft | 238 kts | 345° |
| 2026-05-01 10:50 | 49.91911 | 8.10889 | 4943 ft | 226 kts | 13° |
| 2026-05-01 10:50 | 49.93246 | 8.11853 | 4715 ft | 206 kts | 51° |
| 2026-05-01 10:51 | 49.93982 | 8.13654 | 4487 ft | 196 kts | 81° |
| 2026-05-01 10:51 | 49.94154 | 8.15701 | 4383 ft | 188 kts | 83° |
| 2026-05-01 10:51 | 49.94444 | 8.17659 | 4340 ft | 181 kts | 78° |
| 2026-05-01 10:51 | 49.94781 | 8.19511 | 4348 ft | 176 kts | 77° |
| 2026-05-01 10:52 | 49.95138 | 8.21309 | 4243 ft | 174 kts | 76° |
| 2026-05-01 10:52 | 49.95532 | 8.23083 | 4076 ft | 173 kts | 74° |
| 2026-05-01 10:52 | 49.95940 | 8.24822 | 4020 ft | 169 kts | 75° |
| 2026-05-01 10:52 | 49.96346 | 8.26538 | 3979 ft | 170 kts | 74° |
| 2026-05-01 10:53 | 49.96757 | 8.28263 | 3781 ft | 169 kts | 73° |
| 2026-05-01 10:53 | 49.97163 | 8.29939 | 3564 ft | 164 kts | 73° |
| 2026-05-01 10:53 | 49.97560 | 8.31587 | 3348 ft | 162 kts | 73° |
| 2026-05-01 10:53 | 49.97942 | 8.33212 | 3103 ft | 157 kts | 71° |
| 2026-05-01 10:54 | 49.98320 | 8.34770 | 2902 ft | 152 kts | 72° |
| 2026-05-01 10:54 | 49.98684 | 8.36298 | 2663 ft | 145 kts | 71° |
| 2026-05-01 10:54 | 49.99008 | 8.37726 | 2538 ft | 134 kts | 75° |
| 2026-05-01 10:54 | 49.99294 | 8.39040 | 2458 ft | 132 kts | 72° |
| 2026-05-01 10:55 | 49.99603 | 8.40392 | 2366 ft | 131 kts | 73° |
| 2026-05-01 10:55 | 49.99944 | 8.41711 | 2029 ft | 132 kts | 69° |
| 2026-05-01 10:55 | 50.00287 | 8.43015 | 1832 ft | 126 kts | 71° |
| 2026-05-01 10:55 | 50.00577 | 8.44269 | 1586 ft | 123 kts | 72° |
| 2026-05-01 10:56 | 50.00850 | 8.45496 | 1396 ft | 118 kts | 70° |
| 2026-05-01 10:56 | 50.01158 | 8.46711 | 1323 ft | 122 kts | 69° |
| 2026-05-01 10:56 | 50.01457 | 8.47952 | 1154 ft | 123 kts | 71° |
| 2026-05-01 10:56 | 50.01740 | 8.49161 | 963 ft | 119 kts | 72° |
| 2026-05-01 10:57 | 50.02040 | 8.50379 | 787 ft | 119 kts | 72° |
| 2026-05-01 10:57 | 50.02325 | 8.51606 | 633 ft | 121 kts | 72° |
| 2026-05-01 10:57 | 50.02611 | 8.52826 | 462 ft | 122 kts | 73° |
| 2026-05-01 10:57 | 50.02906 | 8.54047 | 361 ft | 120 kts | 67° |